Time;durP1;ratioP1;P1;durP2;ratioP2;P2;SDS_P1;SDS_P2;PMS_P1;PMS_P2;Temp;Humidity;BMP_temperature;BMP_pressure;BME280_temperature;BME280_humidity;BME280_pressure;Samples;Min_cycle;Max_cycle;Signal;HPM_P1;HPM_P2
2023/01/14 00:00:14;;;;;;;19.97;3.93;;;7.80;99.90;;;;;;4993236;28;20030;-55
2023/01/14 00:02:40;;;;;;;28.90;4.90;;;7.80;99.90;;;;;;4993155;28;20030;-54
2023/01/14 00:05:06;;;;;;;27.03;4.20;;;7.80;99.90;;;;;;4992839;28;20538;-55
2023/01/14 00:07:31;;;;;;;23.40;3.97;;;7.90;99.90;;;;;;4992863;28;20031;-55
2023/01/14 00:09:57;;;;;;;25.83;3.73;;;7.90;99.90;;;;;;4992775;28;20035;-56
2023/01/14 00:12:23;;;;;;;26.90;4.20;;;7.90;99.90;;;;;;4992869;28;20116;-55
2023/01/14 00:14:48;;;;;;;23.37;3.63;;;7.90;99.90;;;;;;4992633;28;20035;-56
2023/01/14 00:17:14;;;;;;;27.40;3.80;;;7.80;99.90;;;;;;4992413;28;20042;-55
2023/01/14 00:19:40;;;;;;;26.00;4.33;;;7.80;99.90;;;;;;4992762;28;20479;-50
2023/01/14 00:22:05;;;;;;;25.00;3.53;;;7.90;99.90;;;;;;4992786;28;20057;-54
2023/01/14 00:24:31;;;;;;;21.87;4.30;;;7.90;99.90;;;;;;4992430;28;20045;-51
2023/01/14 00:26:57;;;;;;;25.10;3.43;;;7.90;99.90;;;;;;4992317;28;20080;-56
2023/01/14 00:29:29;;;;;;;21.63;3.00;;;7.90;99.90;;;;;;4992649;28;20035;-56
2023/01/14 00:31:56;;;;;;;29.10;5.17;;;7.80;99.90;;;;;;4992568;28;20019;-56
2023/01/14 00:34:24;;;;;;;22.57;3.60;;;7.90;99.90;;;;;;4992309;28;20036;-53
2023/01/14 00:36:50;;;;;;;24.40;3.50;;;7.90;99.90;;;;;;4990885;28;20026;-53
2023/01/14 00:39:20;;;;;;;28.67;4.10;;;7.90;99.90;;;;;;4991124;28;20038;-54
2023/01/14 00:41:45;;;;;;;24.30;3.83;;;7.90;99.90;;;;;;4991134;28;20117;-57
2023/01/14 00:44:11;;;;;;;26.27;4.43;;;7.90;99.90;;;;;;4992106;28;20069;-55
2023/01/14 00:46:39;;;;;;;25.87;4.83;;;7.90;99.90;;;;;;4992042;28;20069;-53
2023/01/14 00:49:07;;;;;;;27.13;4.03;;;7.90;99.90;;;;;;4990821;28;20034;-55
2023/01/14 00:51:34;;;;;;;24.80;4.50;;;7.90;99.90;;;;;;4992138;28;20120;-55
2023/01/14 00:54:01;;;;;;;27.43;4.67;;;7.90;99.90;;;;;;4992180;28;20042;-54
2023/01/14 00:56:27;;;;;;;31.27;5.03;;;7.90;99.90;;;;;;4991793;28;20030;-56
2023/01/14 00:58:53;;;;;;;25.93;4.60;;;7.90;99.90;;;;;;4991974;28;20109;-55
2023/01/14 01:01:20;;;;;;;30.70;3.80;;;7.90;99.90;;;;;;4991733;28;20455;-56
2023/01/14 01:03:51;;;;;;;22.90;4.10;;;7.90;99.90;;;;;;4991735;28;20475;-54
2023/01/14 01:06:18;;;;;;;27.80;4.70;;;7.90;99.90;;;;;;4991702;28;20038;-55
2023/01/14 01:08:45;;;;;;;28.70;5.07;;;7.80;99.90;;;;;;4991842;28;20101;-56
2023/01/14 01:11:13;;;;;;;27.10;5.18;;;7.90;99.90;;;;;;4991716;28;20038;-55
2023/01/14 01:13:39;;;;;;;27.37;4.73;;;7.90;99.90;;;;;;4991574;28;20109;-56
2023/01/14 01:16:10;;;;;;;30.50;5.40;;;7.80;99.90;;;;;;4990305;28;20606;-56
2023/01/14 01:18:36;;;;;;;29.37;4.23;;;7.80;99.90;;;;;;4990312;28;20034;-56
2023/01/14 01:21:06;;;;;;;34.17;6.40;;;7.80;99.90;;;;;;4991781;28;20275;-56
2023/01/14 01:23:32;;;;;;;40.40;5.87;;;7.70;99.90;;;;;;4991447;28;20027;-54
2023/01/14 01:26:03;;;;;;;25.67;5.77;;;7.70;99.90;;;;;;4991472;28;20479;-55
2023/01/14 01:28:29;;;;;;;35.33;5.97;;;7.70;99.90;;;;;;4991288;28;20038;-57
2023/01/14 01:31:09;;;;;;;31.90;5.53;;;7.60;99.90;;;;;;4991425;28;20039;-54
2023/01/14 01:33:34;;;;;;;;;;;7.60;99.90;;;;;;4991892;28;20030;-55
2023/01/14 01:36:10;;;;;;;31.03;6.23;;;7.50;99.90;;;;;;4991405;28;19964;-56
2023/01/14 01:38:36;;;;;;;30.70;5.87;;;7.50;99.90;;;;;;4990033;28;20045;-53
2023/01/14 01:41:02;;;;;;;34.90;6.20;;;7.50;99.90;;;;;;4991349;28;20026;-57
2023/01/14 01:43:29;;;;;;;34.40;6.70;;;7.40;99.90;;;;;;4991064;28;20409;-54
2023/01/14 01:45:59;;;;;;;33.17;5.53;;;7.40;99.90;;;;;;4989930;28;20042;-55
2023/01/14 01:48:36;;;;;;;;;;;7.40;99.90;;;;;;4991772;28;20437;-56
2023/01/14 01:51:07;;;;;;;29.17;4.50;;;7.40;99.90;;;;;;4991288;28;20326;-54
2023/01/14 01:53:38;;;;;;;27.10;4.73;;;7.30;99.90;;;;;;4991157;28;20030;-56
2023/01/14 01:56:05;;;;;;;30.03;5.50;;;7.30;99.90;;;;;;4991008;28;20582;-56
2023/01/14 01:58:32;;;;;;;31.37;5.13;;;7.30;99.90;;;;;;4989608;28;20073;-54
2023/01/14 02:01:00;;;;;;;38.97;6.13;;;7.30;99.90;;;;;;4991418;28;20031;-55
2023/01/14 02:03:41;;;;;;;38.28;5.68;;;7.30;99.90;;;;;;4989702;28;20031;-56
2023/01/14 02:06:09;;;;;;;34.43;6.50;;;7.20;99.90;;;;;;4989784;28;20058;-55
2023/01/14 02:08:38;;;;;;;31.70;4.73;;;7.20;99.90;;;;;;4989452;28;20034;-55
2023/01/14 02:11:17;;;;;;;24.67;4.03;;;7.20;99.90;;;;;;4991103;28;20030;-55
2023/01/14 02:14:11;;;;;;;33.53;4.97;;;7.10;99.90;;;;;;4992434;28;20026;-55
2023/01/14 02:16:46;;;;;;;37.33;4.77;;;7.00;99.90;;;;;;4994728;28;20041;-56
2023/01/14 02:19:34;;;;;;;30.75;5.38;;;7.00;99.90;;;;;;4993731;28;20034;-53
2023/01/14 02:22:33;;;;;;;28.77;4.37;;;6.90;99.90;;;;;;4995059;28;20054;-56
2023/01/14 02:25:39;;;;;;;29.57;4.10;;;6.90;99.90;;;;;;4993502;28;20034;-52
2023/01/14 02:28:23;;;;;;;36.97;5.37;;;6.80;99.90;;;;;;4993278;28;20030;-55
2023/01/14 02:31:05;;;;;;;27.90;4.43;;;6.80;99.90;;;;;;4994803;28;20097;-55
2023/01/14 02:33:41;;;;;;;35.70;5.30;;;6.70;99.90;;;;;;4993162;28;20104;-54
2023/01/14 02:36:12;;;;;;;35.33;5.73;;;6.60;99.90;;;;;;4993304;28;20035;-56
2023/01/14 02:38:52;;;;;;;26.65;3.75;;;6.60;99.90;;;;;;4994372;28;20058;-55
2023/01/14 02:44:29;;;;;;;30.63;5.17;;;6.60;99.90;;;;;;4993068;28;20065;-54
2023/01/14 02:47:06;;;;;;;28.97;4.70;;;6.50;99.90;;;;;;4994251;28;20033;-54
2023/01/14 02:49:38;;;;;;;32.37;3.70;;;6.60;99.90;;;;;;4993130;28;20041;-53
2023/01/14 02:52:05;;;;;;;28.63;3.53;;;6.60;99.90;;;;;;4993154;28;20069;-56
2023/01/14 02:54:32;;;;;;;30.57;5.03;;;6.60;99.90;;;;;;4992653;28;20105;-55
2023/01/14 02:57:06;;;;;;;30.97;4.13;;;6.60;99.90;;;;;;4992690;28;20129;-54
2023/01/14 03:00:14;;;;;;;39.40;6.17;;;6.60;99.90;;;;;;4992911;28;20385;-52
2023/01/14 03:03:18;;;;;;;26.30;3.67;;;6.50;99.90;;;;;;4993972;28;20114;-57
2023/01/14 03:06:22;;;;;;;29.70;3.83;;;6.50;99.90;;;;;;4994159;28;20054;-53
2023/01/14 03:09:08;;;;;;;26.23;3.73;;;6.40;99.90;;;;;;4992603;28;20031;-54
2023/01/14 03:12:18;;;;;;;25.73;3.67;;;6.50;99.90;;;;;;4992735;28;20030;-51
2023/01/14 03:14:51;;;;;;;33.13;3.60;;;6.50;99.90;;;;;;4992397;28;20122;-55
2023/01/14 03:17:44;;;;;;;31.97;4.63;;;6.50;99.90;;;;;;5013878;23;20050;-60
2023/01/14 03:20:21;;;;;;;25.20;3.57;;;6.50;99.90;;;;;;5033123;28;20104;-60
2023/01/14 03:22:50;;;;;;;30.87;4.00;;;6.50;99.90;;;;;;5033301;28;20422;-60
2023/01/14 03:25:17;;;;;;;33.33;3.85;;;6.60;99.90;;;;;;5032725;28;20079;-60
2023/01/14 03:27:47;;;;;;;25.13;4.53;;;6.60;99.90;;;;;;5015037;28;20057;-60
2023/01/14 03:30:21;;;;;;;29.43;4.07;;;6.60;99.90;;;;;;5033113;28;20041;-59
2023/01/14 03:32:57;;;;;;;25.40;4.57;;;6.60;99.90;;;;;;5033065;28;20061;-60
2023/01/14 03:35:34;;;;;;;26.07;3.63;;;6.60;99.90;;;;;;5015211;28;20034;-60
2023/01/14 03:38:06;;;;;;;32.73;3.70;;;6.60;99.90;;;;;;5014796;28;20030;-60
2023/01/14 03:40:34;;;;;;;31.30;3.63;;;6.60;99.90;;;;;;5032819;28;20566;-60
2023/01/14 03:43:20;;;;;;;26.77;3.70;;;6.50;99.90;;;;;;5032881;28;20040;-60
2023/01/14 03:45:46;;;;;;;32.50;4.07;;;6.60;99.90;;;;;;5032806;28;20044;-60
2023/01/14 03:48:12;;;;;;;27.50;3.57;;;6.60;99.90;;;;;;5032333;28;20124;-59
2023/01/14 03:50:50;;;;;;;32.63;4.97;;;6.60;99.90;;;;;;5033070;28;20448;-61
2023/01/14 03:53:24;;;;;;;38.73;5.17;;;6.60;99.90;;;;;;5032804;28;20025;-60
2023/01/14 03:56:04;;;;;;;27.47;3.30;;;6.60;99.90;;;;;;5032638;28;20041;-61
2023/01/14 03:58:36;;;;;;;22.53;3.40;;;6.70;99.90;;;;;;5032143;28;20029;-60
2023/01/14 04:01:23;;;;;;;22.93;4.10;;;6.70;99.90;;;;;;5032540;28;20034;-60
2023/01/14 04:03:49;;;;;;;30.03;5.00;;;6.70;99.90;;;;;;5032256;28;20033;-60
2023/01/14 04:06:15;;;;;;;23.40;3.83;;;6.80;99.90;;;;;;5032432;28;20029;-61
2023/01/14 04:08:41;;;;;;;30.93;4.03;;;6.90;99.90;;;;;;5032103;28;20040;-60
2023/01/14 04:11:08;;;;;;;35.93;3.90;;;6.90;99.90;;;;;;5032278;28;20026;-60
2023/01/14 04:16:18;;;;;;;32.03;4.03;;;6.90;99.90;;;;;;5032053;28;20033;-59
2023/01/14 04:18:44;;;;;;;26.97;3.97;;;6.90;99.90;;;;;;5031931;28;20087;-58
2023/01/14 04:21:09;;;;;;;19.53;3.23;;;7.00;99.90;;;;;;5032191;28;20028;-59
2023/01/14 04:23:35;;;;;;;23.33;3.33;;;6.90;99.90;;;;;;5031742;28;20445;-58
2023/01/14 04:26:01;;;;;;;31.10;4.13;;;6.90;99.90;;;;;;5032136;28;20022;-58
2023/01/14 04:28:27;;;;;;;26.33;3.60;;;6.90;99.90;;;;;;5031668;28;20043;-59
2023/01/14 04:30:53;;;;;;;28.37;4.13;;;6.90;99.90;;;;;;5031827;28;20079;-59
2023/01/14 04:33:20;;;;;;;23.60;3.23;;;6.90;99.90;;;;;;5031738;28;20071;-59
2023/01/14 04:35:48;;;;;;;31.80;3.97;;;6.90;99.90;;;;;;5031234;28;20030;-59
2023/01/14 04:38:18;;;;;;;26.50;4.17;;;6.90;99.90;;;;;;5031320;28;20025;-59
2023/01/14 04:40:44;;;;;;;26.97;3.97;;;6.80;99.90;;;;;;5031624;28;20551;-59
2023/01/14 04:43:09;;;;;;;25.90;3.83;;;6.90;99.90;;;;;;5031757;28;20022;-59
2023/01/14 04:45:36;;;;;;;25.60;3.60;;;6.90;99.90;;;;;;5031516;28;20391;-59
2023/01/14 04:48:02;;;;;;;30.17;4.53;;;6.80;99.90;;;;;;5031469;28;20247;-59
2023/01/14 04:50:31;;;;;;;24.07;3.33;;;6.80;99.90;;;;;;5031317;28;20046;-58
2023/01/14 04:53:08;;;;;;;22.30;3.60;;;6.80;99.90;;;;;;5031634;28;20025;-59
2023/01/14 04:55:39;;;;;;;24.73;3.70;;;6.80;99.90;;;;;;5031280;28;20485;-59
2023/01/14 04:58:06;;;;;;;21.60;2.83;;;6.80;99.90;;;;;;5031105;28;20056;-59
2023/01/14 05:00:32;;;;;;;31.40;3.53;;;6.90;99.90;;;;;;5031232;28;20033;-59
2023/01/14 05:03:00;;;;;;;25.93;3.50;;;6.80;99.90;;;;;;5031253;28;20639;-59
2023/01/14 05:05:26;;;;;;;19.80;3.20;;;6.80;99.90;;;;;;5031047;28;20482;-59
2023/01/14 05:07:52;;;;;;;21.07;2.77;;;6.80;99.90;;;;;;5030961;28;20032;-59
2023/01/14 05:10:17;;;;;;;30.83;4.00;;;6.70;99.90;;;;;;5031104;28;20433;-59
2023/01/14 05:12:55;;;;;;;24.07;3.70;;;6.70;99.90;;;;;;5031143;28;20030;-59
2023/01/14 05:15:30;;;;;;;25.03;3.90;;;6.80;99.90;;;;;;5030930;28;20038;-59
2023/01/14 05:17:56;;;;;;;24.23;3.30;;;6.70;99.90;;;;;;5030751;28;20289;-59
2023/01/14 05:20:23;;;;;;;21.77;3.17;;;6.70;99.90;;;;;;5031077;28;20344;-59
2023/01/14 05:22:50;;;;;;;23.37;3.53;;;6.70;99.90;;;;;;5031179;28;20193;-59
2023/01/14 05:25:16;;;;;;;31.10;3.37;;;6.70;99.90;;;;;;5030780;28;20026;-59
2023/01/14 05:27:42;;;;;;;27.70;3.37;;;6.60;99.90;;;;;;5031114;28;20130;-59
2023/01/14 05:30:08;;;;;;;24.87;4.20;;;6.60;99.90;;;;;;5030754;28;20037;-59
2023/01/14 05:32:34;;;;;;;24.43;2.93;;;6.70;99.90;;;;;;5030853;28;20072;-59
2023/01/14 05:35:00;;;;;;;25.03;3.37;;;6.70;99.90;;;;;;5030840;28;20064;-59
2023/01/14 05:37:26;;;;;;;24.83;3.73;;;6.70;99.90;;;;;;5030358;28;20029;-59
2023/01/14 05:39:51;;;;;;;23.80;3.40;;;6.70;99.90;;;;;;5030740;28;20022;-59
2023/01/14 05:47:46;;;;;;;24.60;3.57;;;6.70;99.90;;;;;;5029491;28;20172;-59
2023/01/14 05:50:12;;;;;;;21.50;3.10;;;6.70;99.90;;;;;;5013039;28;20033;-59
2023/01/14 05:52:38;;;;;;;23.23;3.80;;;6.70;99.90;;;;;;5030544;28;20071;-59
2023/01/14 05:55:04;;;;;;;20.50;2.80;;;6.70;99.90;;;;;;5030372;28;20076;-58
2023/01/14 05:57:30;;;;;;;25.00;3.10;;;6.80;99.90;;;;;;5030187;28;20075;-58
2023/01/14 05:59:56;;;;;;;20.10;3.13;;;6.70;99.90;;;;;;5030611;28;20049;-58
2023/01/14 06:07:52;;;;;;;22.60;3.23;;;6.80;99.90;;;;;;5030091;28;20033;-59
2023/01/14 06:10:18;;;;;;;19.40;3.40;;;6.70;99.90;;;;;;5030595;28;20506;-59
2023/01/14 06:13:02;;;;;;;22.93;3.60;;;6.80;99.90;;;;;;5030417;28;20040;-59
2023/01/14 06:15:35;;;;;;;16.23;2.93;;;6.70;99.90;;;;;;5030648;28;20482;-58
2023/01/14 06:18:13;;;;;;;29.53;3.37;;;6.70;99.90;;;;;;5029845;28;20478;-59
2023/01/14 06:20:40;;;;;;;12.50;2.00;;;6.70;99.90;;;;;;5030453;28;20044;-58
2023/01/14 06:23:06;;;;;;;17.23;2.50;;;6.80;99.90;;;;;;5030238;28;20030;-59
2023/01/14 06:25:33;;;;;;;19.20;2.77;;;6.90;99.90;;;;;;5030105;28;20022;-59
2023/01/14 06:28:02;;;;;;;15.07;2.60;;;6.90;99.90;;;;;;5029981;28;20053;-59
2023/01/14 06:30:28;;;;;;;16.10;2.58;;;6.80;99.90;;;;;;5030179;28;20405;-59
2023/01/14 06:32:55;;;;;;;21.33;2.97;;;6.80;99.90;;;;;;5012754;28;20045;-58
2023/01/14 06:35:23;;;;;;;24.90;3.77;;;6.90;99.90;;;;;;5029933;28;20037;-59
2023/01/14 06:37:49;;;;;;;14.37;2.27;;;6.80;99.90;;;;;;5029885;28;20033;-59
2023/01/14 06:40:15;;;;;;;21.60;2.97;;;6.90;99.90;;;;;;5030132;28;20043;-59
2023/01/14 06:42:41;;;;;;;16.57;2.80;;;6.90;99.90;;;;;;5030094;28;20025;-59
2023/01/14 06:45:08;;;;;;;27.20;3.10;;;7.00;99.90;;;;;;5029806;28;20029;-59
2023/01/14 06:47:34;;;;;;;19.47;2.77;;;7.00;99.90;;;;;;5029851;28;20060;-59
2023/01/14 06:50:00;;;;;;;23.77;3.00;;;7.10;99.90;;;;;;5029978;28;20025;-59
2023/01/14 06:52:25;;;;;;;16.87;3.73;;;7.10;99.90;;;;;;5030061;28;20105;-59
2023/01/14 06:54:55;;;;;;;18.63;2.50;;;7.20;99.90;;;;;;5030120;28;20029;-59
2023/01/14 06:57:22;;;;;;;14.43;2.57;;;7.20;99.90;;;;;;5029651;28;20128;-59
2023/01/14 06:59:48;;;;;;;17.37;2.60;;;7.20;99.90;;;;;;5031461;28;20038;-59
2023/01/14 07:02:14;;;;;;;17.57;2.23;;;7.20;99.90;;;;;;5033784;28;20033;-59
2023/01/14 07:04:40;;;;;;;16.53;2.80;;;7.30;99.90;;;;;;5033339;28;20029;-59
2023/01/14 07:07:06;;;;;;;34.50;4.60;;;7.30;99.90;;;;;;5033356;28;20502;-59
2023/01/14 07:09:32;;;;;;;24.43;5.97;;;7.30;99.90;;;;;;5015750;28;20044;-61
2023/01/14 07:11:58;;;;;;;18.17;3.33;;;7.30;99.90;;;;;;5033481;28;20043;-58
2023/01/14 07:14:23;;;;;;;17.37;2.47;;;7.30;99.90;;;;;;5033059;28;20065;-59
2023/01/14 07:16:49;;;;;;;17.97;2.60;;;7.20;99.90;;;;;;5032951;28;20127;-58
2023/01/14 07:19:15;;;;;;;10.77;2.67;;;7.10;99.90;;;;;;5033135;28;20034;-58
2023/01/14 07:21:40;;;;;;;17.13;2.10;;;7.10;99.90;;;;;;5033318;28;20034;-58
2023/01/14 07:24:07;;;;;;;12.93;2.37;;;7.00;99.90;;;;;;5033165;28;20029;-58
2023/01/14 07:26:32;;;;;;;22.10;3.10;;;6.90;99.90;;;;;;5032968;28;20029;-59
2023/01/14 07:28:58;;;;;;;14.67;2.60;;;6.90;99.90;;;;;;5032995;28;20454;-58
2023/01/14 07:31:24;;;;;;;25.00;3.53;;;6.80;99.90;;;;;;5033116;28;20116;-58
2023/01/14 07:33:49;;;;;;;14.67;2.20;;;6.80;99.90;;;;;;5032914;28;20124;-59
2023/01/14 07:36:15;;;;;;;16.60;2.73;;;6.70;99.90;;;;;;5032862;28;20033;-58
2023/01/14 07:38:41;;;;;;;15.73;3.20;;;6.70;99.90;;;;;;5032598;28;20079;-58
2023/01/14 07:41:12;;;;;;;15.37;2.57;;;6.60;99.90;;;;;;5032961;28;20079;-60
2023/01/14 07:43:37;;;;;;;14.17;2.83;;;6.60;99.90;;;;;;5014783;28;20033;-59
2023/01/14 07:46:03;;;;;;;11.00;2.23;;;6.60;99.90;;;;;;5032851;28;20105;-59
2023/01/14 07:48:29;;;;;;;26.23;3.00;;;6.50;99.90;;;;;;5032456;28;20091;-58
2023/01/14 07:50:56;;;;;;;15.10;2.03;;;6.40;99.90;;;;;;5032637;28;20040;-59
2023/01/14 07:53:22;;;;;;;17.57;2.77;;;6.40;99.90;;;;;;5032437;28;20478;-60
2023/01/14 07:55:47;;;;;;;19.13;2.97;;;6.30;99.90;;;;;;5032550;28;20029;-58
2023/01/14 07:58:14;;;;;;;14.30;1.87;;;6.30;99.90;;;;;;5032180;28;20030;-59
2023/01/14 08:00:40;;;;;;;15.23;1.97;;;6.30;99.90;;;;;;5032608;28;20021;-59
2023/01/14 08:03:06;;;;;;;15.87;2.93;;;6.30;99.90;;;;;;5032368;28;20521;-59
2023/01/14 08:05:34;;;;;;;15.80;2.47;;;6.20;99.90;;;;;;5032409;28;20209;-59
2023/01/14 08:08:00;;;;;;;18.37;2.97;;;6.20;99.90;;;;;;5032221;28;20029;-58
2023/01/14 08:10:25;;;;;;;18.70;2.50;;;6.10;99.90;;;;;;5031637;28;20502;-57
2023/01/14 08:12:51;;;;;;;18.00;2.40;;;6.20;99.90;;;;;;5031880;28;20025;-59
2023/01/14 08:15:18;;;;;;;23.07;3.43;;;6.20;99.90;;;;;;5032212;28;20591;-59
2023/01/14 08:17:43;;;;;;;23.60;2.97;;;6.20;99.90;;;;;;5031821;28;20163;-59
2023/01/14 08:20:10;;;;;;;14.10;2.03;;;6.10;99.90;;;;;;5032082;28;20084;-59
2023/01/14 08:22:36;;;;;;;16.37;2.87;;;6.10;99.90;;;;;;5032120;28;20033;-58
2023/01/14 08:25:02;;;;;;;17.53;2.80;;;6.10;99.90;;;;;;5014112;28;20025;-59
2023/01/14 08:27:28;;;;;;;13.37;2.77;;;6.10;99.90;;;;;;5031758;28;20018;-58
2023/01/14 08:29:55;;;;;;;8.67;1.97;;;6.10;99.90;;;;;;5031944;28;20394;-59
2023/01/14 08:32:21;;;;;;;18.60;2.50;;;6.10;99.90;;;;;;5014143;28;20482;-59
2023/01/14 08:34:46;;;;;;;16.23;2.17;;;6.20;99.90;;;;;;5013808;28;20025;-59
2023/01/14 08:37:12;;;;;;;10.73;2.10;;;6.10;99.90;;;;;;5031540;28;20119;-59
2023/01/14 08:39:38;;;;;;;8.97;1.97;;;6.10;99.90;;;;;;5014007;28;20417;-59
2023/01/14 08:42:04;;;;;;;15.90;2.73;;;6.20;99.90;;;;;;5031655;28;20155;-58
2023/01/14 08:44:29;;;;;;;14.07;2.23;;;6.20;99.90;;;;;;5031531;28;20156;-58
2023/01/14 08:46:55;;;;;;;13.63;2.13;;;6.20;99.90;;;;;;5031822;28;20241;-58
2023/01/14 08:49:21;;;;;;;18.10;2.50;;;6.20;99.90;;;;;;5031457;28;20053;-58
2023/01/14 08:51:46;;;;;;;20.00;2.93;;;6.20;99.90;;;;;;5031516;28;20039;-58
2023/01/14 08:54:12;;;;;;;17.23;2.50;;;6.20;99.90;;;;;;5031583;28;20017;-60
2023/01/14 08:56:38;;;;;;;14.67;2.00;;;6.30;99.90;;;;;;5031139;28;20962;-58
2023/01/14 08:59:04;;;;;;;18.60;2.50;;;6.30;99.90;;;;;;5031414;28;20124;-58
2023/01/14 09:01:30;;;;;;;16.07;2.40;;;6.30;99.90;;;;;;5031382;28;20025;-57
2023/01/14 09:03:57;;;;;;;10.63;1.80;;;6.40;99.90;;;;;;5031116;28;20448;-58
2023/01/14 09:06:23;;;;;;;18.10;2.03;;;6.40;99.90;;;;;;5031460;28;20030;-58
2023/01/14 09:17:10;;;;;;;15.47;3.23;;;6.60;99.90;;;;;;5041028;23;20098;-50
2023/01/14 09:19:49;;;;;;;16.27;2.50;;;6.60;99.90;;;;;;5011055;28;20041;-55
2023/01/14 09:22:18;;;;;;;9.87;1.57;;;6.70;99.90;;;;;;5011151;28;20037;-55
2023/01/14 09:24:44;;;;;;;14.97;2.67;;;6.70;99.90;;;;;;5011142;28;20458;-54
2023/01/14 09:27:10;;;;;;;14.47;3.07;;;6.70;99.90;;;;;;5011355;28;20172;-54
2023/01/14 09:29:36;;;;;;;13.27;2.23;;;6.80;99.90;;;;;;5010936;28;20398;-53
2023/01/14 09:32:02;;;;;;;10.13;2.40;;;6.80;99.90;;;;;;5011029;28;20034;-56
2023/01/14 09:34:28;;;;;;;11.73;2.07;;;6.90;99.90;;;;;;5010992;28;20428;-51
2023/01/14 09:36:54;;;;;;;16.60;2.17;;;6.90;99.90;;;;;;5010654;28;20164;-54
2023/01/14 09:39:20;;;;;;;12.40;2.67;;;7.00;99.90;;;;;;5010948;28;20114;-56
2023/01/14 09:41:52;;;;;;;12.20;2.57;;;7.00;99.90;;;;;;5010956;28;20113;-51
2023/01/14 09:44:19;;;;;;;13.47;2.10;;;7.00;99.90;;;;;;5010692;28;20030;-54
2023/01/14 09:46:45;;;;;;;12.97;2.33;;;7.00;99.90;;;;;;5010627;28;20029;-53
2023/01/14 09:49:16;;;;;;;10.00;1.90;;;7.10;99.90;;;;;;5010960;28;20041;-52
2023/01/14 09:52:21;;;;;;;14.00;2.83;;;7.10;99.90;;;;;;5010900;28;20038;-54
2023/01/14 09:55:01;;;;;;;10.13;1.80;;;7.10;99.90;;;;;;4993206;28;20058;-54
2023/01/14 09:57:46;;;;;;;7.10;1.80;;;7.20;99.90;;;;;;5010535;28;20082;-54
2023/01/14 10:00:46;;;;;;;10.70;2.00;;;7.30;99.90;;;;;;5010743;28;20478;-52
2023/01/14 10:03:27;;;;;;;7.57;1.17;;;7.30;99.90;;;;;;5010670;28;20430;-53
2023/01/14 10:06:01;;;;;;;7.83;1.83;;;7.40;99.90;;;;;;5010826;28;20033;-54
2023/01/14 10:08:33;;;;;;;7.43;1.50;;;7.40;99.90;;;;;;5010620;28;20399;-52
2023/01/14 10:11:00;;;;;;;16.13;3.50;;;7.40;99.90;;;;;;5010682;28;20109;-52
2023/01/14 10:13:32;;;;;;;11.97;3.77;;;7.40;99.90;;;;;;5010269;28;20448;-52
2023/01/14 10:16:17;;;;;;;8.00;1.40;;;7.40;99.90;;;;;;5010499;28;20066;-52
2023/01/14 10:19:01;;;;;;;8.80;1.80;;;7.40;99.90;;;;;;5010215;28;20033;-54
2023/01/14 10:21:42;;;;;;;12.20;2.00;;;7.30;99.90;;;;;;5010655;28;20030;-55
2023/01/14 10:24:13;;;;;;;13.97;3.87;;;7.30;99.90;;;;;;5010313;28;20026;-52
2023/01/14 10:26:40;;;;;;;7.80;1.67;;;7.20;99.90;;;;;;5010498;28;20033;-54
2023/01/14 10:29:17;;;;;;;8.37;1.70;;;7.20;99.90;;;;;;5010207;28;20109;-54
2023/01/14 10:31:57;;;;;;;7.47;1.43;;;7.20;99.90;;;;;;5010438;28;20034;-49
2023/01/14 10:34:33;;;;;;;10.70;1.70;;;7.10;99.90;;;;;;5011148;28;20038;-54
2023/01/14 10:36:59;;;;;;;8.53;1.60;;;7.10;99.90;;;;;;5014208;28;20041;-52
2023/01/14 10:39:25;;;;;;;8.90;1.90;;;7.10;99.90;;;;;;5014185;28;20041;-51
2023/01/14 10:41:51;;;;;;;10.13;1.77;;;7.10;99.90;;;;;;5014233;28;20116;-53
2023/01/14 10:44:23;;;;;;;7.70;1.77;;;7.10;99.90;;;;;;5013909;28;20026;-50
2023/01/14 10:46:56;;;;;;;9.07;1.73;;;7.10;99.90;;;;;;5013812;28;20026;-52
2023/01/14 10:49:43;;;;;;;5.93;1.43;;;7.00;99.90;;;;;;5013975;28;20125;-54
2023/01/14 10:52:21;;;;;;;5.90;2.00;;;7.10;99.90;;;;;;5013963;28;20093;-48
2023/01/14 10:55:02;;;;;;;10.27;1.97;;;7.10;99.90;;;;;;5013771;28;20044;-52
2023/01/14 10:57:31;;;;;;;6.90;1.33;;;7.10;99.90;;;;;;5013566;28;20034;-52
2023/01/14 10:59:57;;;;;;;10.07;1.83;;;7.00;99.90;;;;;;5013913;28;20395;-50
2023/01/14 11:02:26;;;;;;;7.67;1.57;;;7.00;99.90;;;;;;5013798;28;20030;-51
2023/01/14 11:04:53;;;;;;;8.07;1.73;;;7.00;99.90;;;;;;5013760;28;20113;-53
2023/01/14 11:07:32;;;;;;;5.13;1.60;;;7.00;99.90;;;;;;5013455;28;20485;-53
2023/01/14 11:10:01;;;;;;;6.78;1.50;;;7.00;99.90;;;;;;5013736;28;20038;-52
2023/01/14 11:12:29;;;;;;;5.22;1.10;;;7.10;99.90;;;;;;5013625;28;20030;-52
2023/01/14 11:14:55;;;;;;;5.67;1.30;;;7.20;99.90;;;;;;5013330;28;20030;-53
2023/01/14 11:17:27;;;;;;;3.33;1.17;;;7.20;99.90;;;;;;5013006;28;20041;-53
2023/01/14 11:20:23;;;;;;;6.80;1.73;;;7.20;99.90;;;;;;5013469;28;20033;-53
2023/01/14 11:22:56;;;;;;;5.43;1.13;;;7.20;99.90;;;;;;5013610;28;20033;-52
2023/01/14 11:25:22;;;;;;;5.90;1.30;;;7.30;99.90;;;;;;5013622;28;20458;-56
2023/01/14 11:27:49;;;;;;;14.33;1.77;;;7.30;99.90;;;;;;5013096;28;20030;-55
2023/01/14 11:30:21;;;;;;;3.63;1.17;;;7.30;99.90;;;;;;5013090;28;20526;-53
2023/01/14 11:32:50;;;;;;;4.80;1.63;;;7.40;99.90;;;;;;5013100;28;20108;-53
2023/01/14 11:35:22;;;;;;;8.23;2.17;;;7.40;99.90;;;;;;5013049;28;20113;-53
2023/01/14 11:37:49;;;;;;;6.83;1.23;;;7.40;99.90;;;;;;5012820;28;20460;-56
2023/01/14 11:43:21;;;;;;;5.07;1.17;;;7.50;99.90;;;;;;5012832;28;20032;-56
2023/01/14 11:46:02;;;;;;;6.15;1.48;;;7.50;99.90;;;;;;5013052;28;20022;-56
2023/01/14 11:48:29;;;;;;;6.63;1.33;;;7.50;99.90;;;;;;5012738;28;20052;-57
2023/01/14 11:51:00;;;;;;;3.73;1.10;;;7.60;99.90;;;;;;5012845;28;20030;-58
2023/01/14 11:53:42;;;;;;;8.40;1.47;;;7.60;99.90;;;;;;5012611;28;20041;-58
2023/01/14 11:56:27;;;;;;;7.73;1.20;;;7.60;99.90;;;;;;5012710;28;20069;-58
2023/01/14 11:58:53;;;;;;;3.97;1.20;;;7.70;99.90;;;;;;5012576;28;20030;-58
2023/01/14 12:01:32;;;;;;;5.67;1.43;;;7.70;99.90;;;;;;5012674;28;20026;-59
2023/01/14 12:04:04;;;;;;;3.63;1.17;;;7.70;99.90;;;;;;5012382;28;20022;-59
2023/01/14 12:06:46;;;;;;;4.93;1.07;;;7.70;99.90;;;;;;5012478;28;20029;-58
2023/01/14 12:09:29;;;;;;;8.27;1.40;;;7.70;99.90;;;;;;5012528;28;20308;-59
2023/01/14 12:12:18;;;;;;;10.63;1.80;;;7.70;99.90;;;;;;5012516;28;20033;-58
2023/01/14 12:17:36;;;;;;;4.60;1.80;;;7.80;99.90;;;;;;5011865;28;20080;-58
2023/01/14 12:20:07;;;;;;;5.17;1.20;;;7.80;99.90;;;;;;5012318;28;20058;-59
2023/01/14 12:22:39;;;;;;;4.03;1.23;;;7.80;99.90;;;;;;5012199;28;20566;-59
2023/01/14 12:25:15;;;;;;;5.93;1.13;;;7.80;99.90;;;;;;5012081;28;20034;-58
2023/01/14 12:27:58;;;;;;;5.73;1.47;;;7.90;99.90;;;;;;5012144;28;20030;-59
2023/01/14 12:30:43;;;;;;;4.53;1.27;;;7.90;99.90;;;;;;5012119;28;20383;-58
2023/01/14 12:33:08;;;;;;;6.43;1.33;;;7.90;99.90;;;;;;5012165;28;20495;-59
2023/01/14 12:35:47;;;;;;;4.23;1.20;;;8.00;99.90;;;;;;5012067;28;20038;-58
2023/01/14 12:46:41;;;;;;;6.00;1.13;;;8.20;99.90;;;;;;5011811;28;20034;-59
2023/01/14 12:49:07;;;;;;;2.97;1.20;;;8.10;99.90;;;;;;5011863;28;20030;-58
2023/01/14 12:51:37;;;;;;;5.43;1.03;;;8.20;99.90;;;;;;5011756;28;20305;-59
2023/01/14 12:54:07;;;;;;;3.57;1.10;;;8.10;99.90;;;;;;5011863;28;20025;-59
2023/01/14 12:56:36;;;;;;;6.07;1.17;;;8.20;99.90;;;;;;5011165;28;20390;-59
2023/01/14 12:59:04;;;;;;;5.97;0.90;;;8.20;99.90;;;;;;5011302;28;20033;-59
2023/01/14 13:01:37;;;;;;;2.37;0.97;;;8.20;99.90;;;;;;5011714;28;20429;-59
2023/01/14 13:04:14;;;;;;;3.70;0.90;;;8.20;99.90;;;;;;5011471;28;20037;-59
2023/01/14 13:06:43;;;;;;;4.93;1.13;;;8.20;99.90;;;;;;5011527;28;20572;-59
2023/01/14 13:09:21;;;;;;;4.30;1.23;;;8.30;99.90;;;;;;5011554;28;20038;-59
2023/01/14 13:11:50;;;;;;;2.87;1.40;;;8.30;99.90;;;;;;5011488;28;20034;-59
2023/01/14 13:14:20;;;;;;;3.85;1.10;;;8.30;99.90;;;;;;5011691;28;20053;-59
2023/01/14 13:16:46;;;;;;;3.10;1.10;;;8.40;99.90;;;;;;5011074;28;20113;-59
2023/01/14 13:19:46;;;;;;;2.73;1.00;;;8.30;99.90;;;;;;5011089;28;20124;-58
2023/01/14 13:22:32;;;;;;;2.53;0.97;;;8.30;99.90;;;;;;5006378;28;20038;-59
2023/01/14 13:25:15;;;;;;;3.53;1.20;;;8.30;99.90;;;;;;5010846;28;20053;-59
2023/01/14 13:27:41;;;;;;;5.50;1.90;;;8.30;99.90;;;;;;5010875;28;20022;-59
2023/01/14 13:30:19;;;;;;;2.60;1.10;;;8.30;99.90;;;;;;5011070;28;20029;-59
2023/01/14 13:32:58;;;;;;;3.87;1.10;;;8.30;99.90;;;;;;5011163;28;20030;-59
2023/01/14 13:35:25;;;;;;;;;;;8.30;99.90;;;;;;5011398;28;20076;-59
2023/01/14 13:37:53;;;;;;;3.17;1.20;;;8.30;99.90;;;;;;5010615;28;19924;-59
2023/01/14 13:40:23;;;;;;;2.03;1.00;;;8.30;99.90;;;;;;5011110;28;20383;-59
2023/01/14 13:43:06;;;;;;;3.40;1.00;;;8.30;99.90;;;;;;5010989;28;20559;-59
2023/01/14 13:45:35;;;;;;;2.83;0.90;;;8.40;99.90;;;;;;5010764;28;20037;-59
2023/01/14 13:48:17;;;;;;;4.90;1.40;;;8.40;99.90;;;;;;5010538;28;20029;-59